Latest Coastal Weather Observations for Adele Island

IDW60701

Issued at 3:22 pm WST Sunday 31 July 2016 (issued every 10 minutes, with the page automatically refreshed every 10 minutes)

About coastal observations | Map of coastal stations | Coastal observations for WA | Marine services | Other Formats
Station Details ID: 200735 Name: ADELE ISLAND Lat: -15.51 Lon: 123.16 Height: 4.6 m
Data from the previous 72 hours. | See also: Recent months at Adele Island
Date/Time
WST
Temp
°C
Wind Pressure Rain since
9am
mm
Weather Cloud Vis
km
Sea
Height
m
Swell
Dir  Spd
kts
Gust
kts
hPa Trend Height
m
Period
s
Dir
31/03:00pm - W 6 8 1012.3 - - - - - - - - -
31/02:30pm - SW 7 9 1012.2 - - - - - - - - -
31/02:00pm - SW 6 8 1012.4 - - - - - - - - -
31/01:30pm - SW 5 8 1012.7 - - - - - - - - -
31/01:00pm - N 4 6 1013.0 - - - - - - - - -
31/12:30pm - NNE 4 6 1013.5 - - - - - - - - -
31/12:00pm - NNE 4 6 1014.0 - - - - - - - - -
31/11:30am - ENE 4 6 1014.5 - - - - - - - - -
31/11:00am - ESE 5 7 1014.9 - - - - - - - - -
31/10:30am - SE 6 8 1015.2 - - - - - - - - -
31/10:00am - ESE 7 11 1015.4 - - - - - - - - -
31/09:30am - SE 8 9 1015.5 - - - - - - - - -
31/09:00am - SSE 9 12 1015.6 - - - - - - - - -
31/08:30am - SSE 9 11 1015.4 - - - - - - - - -
31/08:00am - SSE 7 10 1015.0 - - - - - - - - -
31/07:30am - SSE 7 9 1014.8 - - - - - - - - -
31/07:00am - SSE 8 9 1014.6 - - - - - - - - -
31/06:30am - SSE 8 9 1014.3 - - - - - - - - -
31/06:00am - SSE 5 7 1014.2 - - - - - - - - -
31/05:30am - E 5 5 1013.8 - - - - - - - - -
31/05:00am - CALM 0 0 1013.6 - - - - - - - - -
31/04:30am - CALM 0 0 1013.7 - - - - - - - - -
31/04:00am - CALM 0 0 1013.5 - - - - - - - - -
31/03:30am - N 3 3 1013.4 - - - - - - - - -
31/03:00am - N 4 4 1013.4 - - - - - - - - -
31/02:30am - NNW 4 5 1013.4 - - - - - - - - -
31/02:00am - WNW 6 6 1013.3 - - - - - - - - -
31/01:30am - W 6 7 1013.4 - - - - - - - - -
31/01:00am - WSW 8 9 1013.6 - - - - - - - - -
31/12:30am - WSW 7 8 1013.7 - - - - - - - - -
31/12:00am - WSW 8 9 1013.8 - - - - - - - - -
 
Date/Time
WST
Temp
°C
Wind Pressure Rain since
9am
mm
Weather Cloud Vis
km
Sea
Height
m
Swell
Dir  Spd
kts
Gust
kts
hPa Trend Height
m
Period
s
Dir
30/11:30pm - WSW 8 9 1014.0 - - - - - - - - -
30/11:00pm - WNW 6 7 1014.0 - - - - - - - - -
30/10:30pm - WNW 6 7 1013.9 - - - - - - - - -
30/10:00pm - NNW 8 8 1013.9 - - - - - - - - -
30/09:30pm - NNW 8 8 1014.0 - - - - - - - - -
30/09:00pm - NNW 6 8 1014.1 - - - - - - - - -
30/08:30pm - N 5 6 1014.3 - - - - - - - - -
30/08:00pm - NNW 5 6 1014.1 - - - - - - - - -
30/07:30pm - N 3 4 1013.8 - - - - - - - - -
30/07:00pm - N 3 3 1013.7 - - - - - - - - -
30/06:30pm - NNE 5 6 1013.4 - - - - - - - - -
30/06:00pm - NNE 7 8 1013.1 - - - - - - - - -
30/05:30pm - NE 7 8 1012.9 - - - - - - - - -
30/05:00pm - NE 7 9 1012.7 - - - - - - - - -
30/04:30pm - NE 9 11 1012.5 - - - - - - - - -
30/04:00pm - NE 10 13 1012.3 - - - - - - - - -
30/03:30pm - NE 8 11 1012.1 - - - - - - - - -
30/03:00pm - NE 8 11 1012.2 - - - - - - - - -
30/02:30pm - NE 9 12 1012.3 - - - - - - - - -
30/02:00pm - NE 10 13 1012.4 - - - - - - - - -
30/01:30pm - NE 9 12 1012.8 - - - - - - - - -
30/01:00pm - NE 8 11 1013.2 - - - - - - - - -
30/12:30pm - NE 9 11 1013.7 - - - - - - - - -
30/12:00pm - NE 9 11 1014.0 - - - - - - - - -
30/11:30am - NE 8 11 1014.3 - - - - - - - - -
30/11:00am - NNE 8 10 1014.7 - - - - - - - - -
30/10:30am - NE 7 10 1015.0 - - - - - - - - -
30/10:00am - NE 6 8 1015.2 - - - - - - - - -
30/09:30am - NNE 5 6 1015.2 - - - - - - - - -
30/09:00am - ENE 5 6 1015.3 - - - - - - - - -
30/08:30am - ESE 1 6 1015.3 - - - - - - - - -
30/08:00am - NE 4 6 1015.0 - - - - - - - - -
30/07:30am - E 5 6 1014.8 - - - - - - - - -
30/07:00am - ESE 6 6 1014.5 - - - - - - - - -
30/06:30am - SE 7 8 1014.4 - - - - - - - - -
30/06:00am - SSW 7 9 1014.1 - - - - - - - - -
30/05:30am - SSW 6 8 1013.8 - - - - - - - - -
30/05:00am - SSW 6 6 1013.4 - - - - - - - - -
30/04:30am - SSW 6 7 1013.4 - - - - - - - - -
30/04:00am - SSW 6 7 1013.3 - - - - - - - - -
30/03:30am - SSW 5 6 1013.4 - - - - - - - - -
30/03:00am - SSW 6 7 1013.7 - - - - - - - - -
30/02:30am - SSW 6 7 1013.8 - - - - - - - - -
30/02:00am - SSW 5 5 1013.9 - - - - - - - - -
30/01:30am - CALM 0 2 1014.3 - - - - - - - - -
30/01:00am - CALM 0 1 1014.5 - - - - - - - - -
30/12:30am - WSW 3 4 1014.5 - - - - - - - - -
30/12:00am - WSW 4 5 1014.6 - - - - - - - - -
 
Date/Time
WST
Temp
°C
Wind Pressure Rain since
9am
mm
Weather Cloud Vis
km
Sea
Height
m
Swell
Dir  Spd
kts
Gust
kts
hPa Trend Height
m
Period
s
Dir
29/11:30pm - WSW 5 6 1014.9 - - - - - - - - -
29/11:00pm - WSW 4 5 1015.0 - - - - - - - - -
29/10:30pm - WSW 4 5 1015.0 - - - - - - - - -
29/10:00pm - SW 5 6 1015.3 - - - - - - - - -
29/09:30pm - SW 5 5 1015.4 - - - - - - - - -
29/09:00pm - N 4 5 1015.4 - - - - - - - - -
29/08:30pm - CALM 0 0 1015.4 - - - - - - - - -
29/08:00pm - N 1 3 1015.3 - - - - - - - - -
29/07:30pm - N 4 5 1014.9 - - - - - - - - -
29/07:00pm - N 4 5 1014.7 - - - - - - - - -
29/06:30pm - NNE 4 6 1014.2 - - - - - - - - -
29/06:00pm - NNE 4 6 1013.8 - - - - - - - - -
29/05:30pm - NNE 7 9 1013.5 - - - - - - - - -
29/05:00pm - NE 5 6 1013.3 - - - - - - - - -
29/04:30pm - ENE 5 7 1013.4 - - - - - - - - -
29/04:00pm - E 6 9 1013.3 - - - - - - - - -
29/03:30pm - E 8 10 1013.2 - - - - - - - - -
29/03:00pm - ENE 8 11 1013.2 - - - - - - - - -
29/02:30pm - NE 9 11 1013.2 - - - - - - - - -
29/02:00pm - ENE 11 13 1013.3 - - - - - - - - -
29/01:30pm - ENE 11 15 1013.7 - - - - - - - - -
29/01:00pm - ENE 12 16 1013.8 - - - - - - - - -
29/12:30pm - E 13 16 1014.1 - - - - - - - - -
29/12:00pm - E 14 18 1014.4 - - - - - - - - -
29/11:30am - E 15 18 1014.9 - - - - - - - - -
29/11:00am - E 13 15 1015.1 - - - - - - - - -
29/10:30am - E 11 13 1015.5 - - - - - - - - -
29/10:00am - ENE 9 11 1015.8 - - - - - - - - -
29/09:30am - ENE 8 11 1016.0 - - - - - - - - -
29/09:00am - NE 7 8 1016.1 - - - - - - - - -
29/08:30am - NE 6 8 1016.1 - - - - - - - - -
29/08:00am - ENE 7 8 1015.8 - - - - - - - - -
29/07:30am - SSE 2 4 1015.7 - - - - - - - - -
29/07:00am - CALM 0 3 1015.6 - - - - - - - - -
29/06:30am - CALM 0 2 1015.4 - - - - - - - - -
29/06:00am - CALM 0 2 1015.2 - - - - - - - - -
29/05:30am - S 1 3 1015.0 - - - - - - - - -
29/05:00am - S 5 5 1014.8 - - - - - - - - -
29/04:30am - S 6 8 1014.8 - - - - - - - - -
29/04:00am - S 6 7 1014.6 - - - - - - - - -
29/03:30am - S 5 6 1014.7 - - - - - - - - -
29/03:00am - SSW 5 6 1014.7 - - - - - - - - -
29/02:30am - SSW 7 9 1014.6 - - - - - - - - -
29/02:00am - SW 9 10 1014.7 - - - - - - - - -
29/01:30am - SW 7 8 1015.2 - - - - - - - - -
29/01:00am - SW 7 8 1015.4 - - - - - - - - -
29/12:30am - SW 6 7 1015.5 - - - - - - - - -
29/12:00am - SW 7 8 1015.6 - - - - - - - - -
 
Date/Time
WST
Temp
°C
Wind Pressure Rain since
9am
mm
Weather Cloud Vis
km
Sea
Height
m
Swell
Dir  Spd
kts
Gust
kts
hPa Trend Height
m
Period
s
Dir
28/11:30pm - WSW 5 6 1015.6 - - - - - - - - -
28/11:00pm - WSW 6 7 1015.4 - - - - - - - - -
28/10:30pm - WSW 6 6 1015.6 - - - - - - - - -
28/10:00pm - SW 4 5 1015.8 - - - - - - - - -
28/09:30pm - SW 4 5 1016.0 - - - - - - - - -
28/09:00pm - SSW 4 5 1016.0 - - - - - - - - -
28/08:30pm - CALM 0 0 1015.9 - - - - - - - - -
28/08:00pm - SSW 1 3 1015.7 - - - - - - - - -
28/07:30pm - ESE 3 3 1015.5 - - - - - - - - -
28/07:00pm - ESE 2 3 1015.3 - - - - - - - - -
28/06:30pm - ESE 3 4 1015.0 - - - - - - - - -
28/06:00pm - E 3 4 1014.8 - - - - - - - - -
28/05:30pm - ESE 4 5 1014.7 - - - - - - - - -
28/05:00pm - ESE 5 7 1014.6 - - - - - - - - -
28/04:30pm - ESE 6 7 1014.5 - - - - - - - - -
28/04:00pm - E 7 9 1014.3 - - - - - - - - -
28/03:30pm - E 7 9 1014.1 - - - - - - - - -

Other Formats:

Comma delimited format used in spreadsheet applications
http://www.bom.gov.au/fwo/IDW60701/IDW60701.94210.axf

JavaScript Object Notation format (JSON) in row-major order
http://www.bom.gov.au/fwo/IDW60701/IDW60701.94210.json